sensor_id;sensor_type;location;lat;lon;timestamp;P1;durP1;ratioP1;P2;durP2;ratioP2
3083;SDS011;1552;51.952;7.618;2023-05-02T00:00:09;33.50;;;21.90;;
3083;SDS011;1552;51.952;7.618;2023-05-02T00:02:37;37.90;;;23.83;;
3083;SDS011;1552;51.952;7.618;2023-05-02T00:05:05;34.20;;;23.53;;
3083;SDS011;1552;51.952;7.618;2023-05-02T00:07:31;37.57;;;24.90;;
3083;SDS011;1552;51.952;7.618;2023-05-02T00:09:58;36.83;;;25.20;;
3083;SDS011;1552;51.952;7.618;2023-05-02T00:12:24;36.37;;;24.77;;
3083;SDS011;1552;51.952;7.618;2023-05-02T00:14:51;43.63;;;26.50;;
3083;SDS011;1552;51.952;7.618;2023-05-02T00:17:18;36.67;;;24.43;;
3083;SDS011;1552;51.952;7.618;2023-05-02T00:19:44;39.57;;;24.83;;
3083;SDS011;1552;51.952;7.618;2023-05-02T00:22:12;40.70;;;26.00;;
3083;SDS011;1552;51.952;7.618;2023-05-02T00:24:38;40.73;;;26.43;;
3083;SDS011;1552;51.952;7.618;2023-05-02T00:27:05;41.60;;;25.63;;
3083;SDS011;1552;51.952;7.618;2023-05-02T00:29:31;45.03;;;26.80;;
3083;SDS011;1552;51.952;7.618;2023-05-02T00:31:57;42.93;;;25.90;;
3083;SDS011;1552;51.952;7.618;2023-05-02T00:34:27;47.50;;;28.83;;
3083;SDS011;1552;51.952;7.618;2023-05-02T00:36:54;43.83;;;27.00;;
3083;SDS011;1552;51.952;7.618;2023-05-02T00:39:21;47.43;;;28.97;;
3083;SDS011;1552;51.952;7.618;2023-05-02T00:41:48;44.30;;;26.53;;
3083;SDS011;1552;51.952;7.618;2023-05-02T00:44:14;49.67;;;30.30;;
3083;SDS011;1552;51.952;7.618;2023-05-02T00:46:41;44.30;;;27.83;;
3083;SDS011;1552;51.952;7.618;2023-05-02T00:49:07;43.63;;;26.50;;
3083;SDS011;1552;51.952;7.618;2023-05-02T00:51:34;45.53;;;27.83;;
3083;SDS011;1552;51.952;7.618;2023-05-02T00:54:00;44.70;;;27.33;;
3083;SDS011;1552;51.952;7.618;2023-05-02T00:56:28;45.37;;;27.37;;
3083;SDS011;1552;51.952;7.618;2023-05-02T00:58:54;48.13;;;28.47;;
3083;SDS011;1552;51.952;7.618;2023-05-02T01:01:25;46.93;;;26.40;;
3083;SDS011;1552;51.952;7.618;2023-05-02T01:03:56;47.83;;;27.63;;
3083;SDS011;1552;51.952;7.618;2023-05-02T01:06:30;40.27;;;24.60;;
3083;SDS011;1552;51.952;7.618;2023-05-02T01:09:04;47.10;;;26.90;;
3083;SDS011;1552;51.952;7.618;2023-05-02T01:11:37;44.33;;;26.27;;
3083;SDS011;1552;51.952;7.618;2023-05-02T01:14:04;39.53;;;24.80;;
3083;SDS011;1552;51.952;7.618;2023-05-02T01:16:32;45.53;;;26.87;;
3083;SDS011;1552;51.952;7.618;2023-05-02T01:19:01;44.67;;;26.07;;
3083;SDS011;1552;51.952;7.618;2023-05-02T01:21:28;45.43;;;26.17;;
3083;SDS011;1552;51.952;7.618;2023-05-02T01:23:56;44.53;;;26.80;;
3083;SDS011;1552;51.952;7.618;2023-05-02T01:26:29;47.27;;;27.87;;
3083;SDS011;1552;51.952;7.618;2023-05-02T01:28:59;46.53;;;28.53;;
3083;SDS011;1552;51.952;7.618;2023-05-02T01:31:28;48.17;;;26.83;;
3083;SDS011;1552;51.952;7.618;2023-05-02T01:33:55;50.03;;;28.27;;
3083;SDS011;1552;51.952;7.618;2023-05-02T01:36:24;46.77;;;28.93;;
3083;SDS011;1552;51.952;7.618;2023-05-02T01:38:51;51.30;;;28.27;;
3083;SDS011;1552;51.952;7.618;2023-05-02T01:41:19;52.03;;;29.67;;
3083;SDS011;1552;51.952;7.618;2023-05-02T01:43:46;48.37;;;29.10;;
3083;SDS011;1552;51.952;7.618;2023-05-02T01:46:14;54.50;;;30.20;;
3083;SDS011;1552;51.952;7.618;2023-05-02T01:48:41;51.23;;;30.13;;
3083;SDS011;1552;51.952;7.618;2023-05-02T01:51:09;52.37;;;30.17;;
3083;SDS011;1552;51.952;7.618;2023-05-02T01:53:37;55.97;;;30.87;;
3083;SDS011;1552;51.952;7.618;2023-05-02T01:56:04;53.97;;;30.97;;
3083;SDS011;1552;51.952;7.618;2023-05-02T01:58:30;56.77;;;30.90;;
3083;SDS011;1552;51.952;7.618;2023-05-02T02:00:58;51.87;;;29.77;;
3083;SDS011;1552;51.952;7.618;2023-05-02T02:03:27;57.07;;;30.17;;
3083;SDS011;1552;51.952;7.618;2023-05-02T02:05:54;56.70;;;31.13;;
3083;SDS011;1552;51.952;7.618;2023-05-02T02:08:21;47.40;;;26.90;;
3083;SDS011;1552;51.952;7.618;2023-05-02T02:10:48;57.13;;;30.20;;
3083;SDS011;1552;51.952;7.618;2023-05-02T02:13:18;49.63;;;28.80;;
3083;SDS011;1552;51.952;7.618;2023-05-02T02:15:48;51.33;;;29.60;;
3083;SDS011;1552;51.952;7.618;2023-05-02T02:18:17;54.40;;;30.53;;
3083;SDS011;1552;51.952;7.618;2023-05-02T02:20:46;52.37;;;29.23;;
3083;SDS011;1552;51.952;7.618;2023-05-02T02:23:13;51.10;;;28.27;;
3083;SDS011;1552;51.952;7.618;2023-05-02T02:25:40;48.57;;;27.50;;
3083;SDS011;1552;51.952;7.618;2023-05-02T02:28:07;50.10;;;27.53;;
3083;SDS011;1552;51.952;7.618;2023-05-02T02:30:33;48.97;;;26.97;;
3083;SDS011;1552;51.952;7.618;2023-05-02T02:33:00;48.57;;;27.13;;
3083;SDS011;1552;51.952;7.618;2023-05-02T02:35:27;45.17;;;26.57;;
3083;SDS011;1552;51.952;7.618;2023-05-02T02:37:58;45.67;;;26.57;;
3083;SDS011;1552;51.952;7.618;2023-05-02T02:40:28;48.47;;;26.90;;
3083;SDS011;1552;51.952;7.618;2023-05-02T02:42:58;48.63;;;25.60;;
3083;SDS011;1552;51.952;7.618;2023-05-02T02:45:29;44.17;;;25.33;;
3083;SDS011;1552;51.952;7.618;2023-05-02T02:48:01;47.93;;;25.37;;
3083;SDS011;1552;51.952;7.618;2023-05-02T02:50:29;43.83;;;22.63;;
3083;SDS011;1552;51.952;7.618;2023-05-02T02:52:58;43.17;;;24.10;;
3083;SDS011;1552;51.952;7.618;2023-05-02T02:55:30;38.90;;;22.17;;
3083;SDS011;1552;51.952;7.618;2023-05-02T02:58:03;40.63;;;22.27;;
3083;SDS011;1552;51.952;7.618;2023-05-02T03:00:32;41.67;;;23.60;;
3083;SDS011;1552;51.952;7.618;2023-05-02T03:03:00;36.10;;;21.00;;
3083;SDS011;1552;51.952;7.618;2023-05-02T03:05:26;41.00;;;21.30;;
3083;SDS011;1552;51.952;7.618;2023-05-02T03:07:53;37.87;;;21.13;;
3083;SDS011;1552;51.952;7.618;2023-05-02T03:10:22;40.47;;;22.47;;
3083;SDS011;1552;51.952;7.618;2023-05-02T03:12:48;36.10;;;20.00;;
3083;SDS011;1552;51.952;7.618;2023-05-02T03:15:21;34.63;;;18.60;;
3083;SDS011;1552;51.952;7.618;2023-05-02T03:17:48;38.73;;;20.17;;
3083;SDS011;1552;51.952;7.618;2023-05-02T03:20:14;34.60;;;19.20;;
3083;SDS011;1552;51.952;7.618;2023-05-02T03:22:40;38.40;;;21.07;;
3083;SDS011;1552;51.952;7.618;2023-05-02T03:25:07;36.83;;;20.50;;
3083;SDS011;1552;51.952;7.618;2023-05-02T03:27:35;39.67;;;20.10;;
3083;SDS011;1552;51.952;7.618;2023-05-02T03:30:01;40.27;;;19.27;;
3083;SDS011;1552;51.952;7.618;2023-05-02T03:32:28;37.53;;;19.57;;
3083;SDS011;1552;51.952;7.618;2023-05-02T03:34:54;39.73;;;19.50;;
3083;SDS011;1552;51.952;7.618;2023-05-02T03:37:22;37.60;;;19.67;;
3083;SDS011;1552;51.952;7.618;2023-05-02T03:39:48;33.77;;;18.90;;
3083;SDS011;1552;51.952;7.618;2023-05-02T03:42:15;46.47;;;21.20;;
3083;SDS011;1552;51.952;7.618;2023-05-02T03:44:42;39.87;;;19.70;;
3083;SDS011;1552;51.952;7.618;2023-05-02T03:47:09;34.87;;;18.67;;
3083;SDS011;1552;51.952;7.618;2023-05-02T03:49:37;43.00;;;20.10;;
3083;SDS011;1552;51.952;7.618;2023-05-02T03:52:03;37.80;;;19.03;;
3083;SDS011;1552;51.952;7.618;2023-05-02T03:54:30;36.20;;;19.33;;
3083;SDS011;1552;51.952;7.618;2023-05-02T03:56:57;34.57;;;18.30;;
3083;SDS011;1552;51.952;7.618;2023-05-02T03:59:23;34.83;;;18.20;;
3083;SDS011;1552;51.952;7.618;2023-05-02T04:01:51;34.40;;;17.50;;
3083;SDS011;1552;51.952;7.618;2023-05-02T04:04:17;31.60;;;17.10;;
3083;SDS011;1552;51.952;7.618;2023-05-02T04:06:43;32.30;;;16.77;;
3083;SDS011;1552;51.952;7.618;2023-05-02T04:09:10;30.57;;;17.30;;
3083;SDS011;1552;51.952;7.618;2023-05-02T04:11:36;31.20;;;17.43;;
3083;SDS011;1552;51.952;7.618;2023-05-02T04:14:02;34.70;;;16.97;;
3083;SDS011;1552;51.952;7.618;2023-05-02T04:16:28;29.73;;;17.33;;
3083;SDS011;1552;51.952;7.618;2023-05-02T04:18:56;30.40;;;17.33;;
3083;SDS011;1552;51.952;7.618;2023-05-02T04:21:22;34.43;;;16.20;;
3083;SDS011;1552;51.952;7.618;2023-05-02T04:23:49;33.37;;;17.53;;
3083;SDS011;1552;51.952;7.618;2023-05-02T04:26:15;30.87;;;16.47;;
3083;SDS011;1552;51.952;7.618;2023-05-02T04:28:41;27.27;;;14.97;;
3083;SDS011;1552;51.952;7.618;2023-05-02T04:31:08;26.43;;;14.87;;
3083;SDS011;1552;51.952;7.618;2023-05-02T04:33:34;25.43;;;13.87;;
3083;SDS011;1552;51.952;7.618;2023-05-02T04:36:02;16.93;;;9.63;;
3083;SDS011;1552;51.952;7.618;2023-05-02T04:38:28;12.57;;;7.40;;
3083;SDS011;1552;51.952;7.618;2023-05-02T04:40:54;14.63;;;7.27;;
3083;SDS011;1552;51.952;7.618;2023-05-02T04:43:21;9.60;;;6.33;;
3083;SDS011;1552;51.952;7.618;2023-05-02T04:45:48;9.90;;;5.90;;
3083;SDS011;1552;51.952;7.618;2023-05-02T04:48:14;10.77;;;5.17;;
3083;SDS011;1552;51.952;7.618;2023-05-02T04:50:40;11.17;;;5.80;;
3083;SDS011;1552;51.952;7.618;2023-05-02T04:53:08;9.83;;;5.77;;
3083;SDS011;1552;51.952;7.618;2023-05-02T04:55:35;7.90;;;5.00;;
3083;SDS011;1552;51.952;7.618;2023-05-02T04:58:01;8.37;;;5.47;;
3083;SDS011;1552;51.952;7.618;2023-05-02T05:00:28;8.40;;;4.53;;
3083;SDS011;1552;51.952;7.618;2023-05-02T05:02:54;8.00;;;4.53;;
3083;SDS011;1552;51.952;7.618;2023-05-02T05:05:21;6.80;;;4.40;;
3083;SDS011;1552;51.952;7.618;2023-05-02T05:07:47;8.63;;;4.60;;
3083;SDS011;1552;51.952;7.618;2023-05-02T05:10:15;6.93;;;4.30;;
3083;SDS011;1552;51.952;7.618;2023-05-02T05:12:41;7.70;;;4.27;;
3083;SDS011;1552;51.952;7.618;2023-05-02T05:15:08;13.00;;;5.07;;
3083;SDS011;1552;51.952;7.618;2023-05-02T05:17:35;6.57;;;4.20;;
3083;SDS011;1552;51.952;7.618;2023-05-02T05:20:02;6.60;;;3.90;;
3083;SDS011;1552;51.952;7.618;2023-05-02T05:22:28;7.03;;;4.10;;
3083;SDS011;1552;51.952;7.618;2023-05-02T05:24:55;8.33;;;4.23;;
3083;SDS011;1552;51.952;7.618;2023-05-02T05:27:23;8.40;;;3.77;;
3083;SDS011;1552;51.952;7.618;2023-05-02T05:29:49;7.90;;;3.80;;
3083;SDS011;1552;51.952;7.618;2023-05-02T05:32:16;7.53;;;3.90;;
3083;SDS011;1552;51.952;7.618;2023-05-02T05:34:42;10.40;;;4.90;;
3083;SDS011;1552;51.952;7.618;2023-05-02T05:37:08;7.03;;;3.63;;
3083;SDS011;1552;51.952;7.618;2023-05-02T05:39:35;11.93;;;4.10;;
3083;SDS011;1552;51.952;7.618;2023-05-02T05:42:02;5.30;;;3.43;;
3083;SDS011;1552;51.952;7.618;2023-05-02T05:44:29;6.07;;;4.10;;
3083;SDS011;1552;51.952;7.618;2023-05-02T05:46:56;8.40;;;3.77;;
3083;SDS011;1552;51.952;7.618;2023-05-02T05:49:22;6.47;;;3.83;;
3083;SDS011;1552;51.952;7.618;2023-05-02T05:51:49;8.03;;;3.87;;
3083;SDS011;1552;51.952;7.618;2023-05-02T05:54:16;7.23;;;3.93;;
3083;SDS011;1552;51.952;7.618;2023-05-02T05:56:42;9.17;;;3.80;;
3083;SDS011;1552;51.952;7.618;2023-05-02T05:59:09;6.83;;;4.00;;
3083;SDS011;1552;51.952;7.618;2023-05-02T06:01:36;8.53;;;4.80;;
3083;SDS011;1552;51.952;7.618;2023-05-02T06:04:03;8.87;;;4.57;;
3083;SDS011;1552;51.952;7.618;2023-05-02T06:06:30;8.20;;;4.10;;
3083;SDS011;1552;51.952;7.618;2023-05-02T06:08:57;6.07;;;3.60;;
3083;SDS011;1552;51.952;7.618;2023-05-02T06:11:23;9.03;;;3.83;;
3083;SDS011;1552;51.952;7.618;2023-05-02T06:13:50;6.97;;;4.30;;
3083;SDS011;1552;51.952;7.618;2023-05-02T06:16:16;5.73;;;4.13;;
3083;SDS011;1552;51.952;7.618;2023-05-02T06:18:44;5.40;;;2.37;;
3083;SDS011;1552;51.952;7.618;2023-05-02T06:21:10;2.47;;;2.10;;
3083;SDS011;1552;51.952;7.618;2023-05-02T06:23:37;2.90;;;1.70;;
3083;SDS011;1552;51.952;7.618;2023-05-02T06:26:04;2.77;;;1.47;;
3083;SDS011;1552;51.952;7.618;2023-05-02T06:28:31;8.90;;;2.67;;
3083;SDS011;1552;51.952;7.618;2023-05-02T06:30:57;5.63;;;2.50;;
3083;SDS011;1552;51.952;7.618;2023-05-02T06:33:25;3.53;;;1.90;;
3083;SDS011;1552;51.952;7.618;2023-05-02T06:35:52;5.50;;;2.40;;
3083;SDS011;1552;51.952;7.618;2023-05-02T06:38:19;9.03;;;2.20;;
3083;SDS011;1552;51.952;7.618;2023-05-02T06:40:45;8.27;;;2.47;;
3083;SDS011;1552;51.952;7.618;2023-05-02T06:43:12;8.03;;;2.80;;
3083;SDS011;1552;51.952;7.618;2023-05-02T06:45:39;7.40;;;2.47;;
3083;SDS011;1552;51.952;7.618;2023-05-02T06:48:05;4.93;;;2.50;;
3083;SDS011;1552;51.952;7.618;2023-05-02T06:50:32;8.90;;;2.97;;
3083;SDS011;1552;51.952;7.618;2023-05-02T06:53:00;7.03;;;2.73;;
3083;SDS011;1552;51.952;7.618;2023-05-02T06:55:26;10.07;;;3.40;;
3083;SDS011;1552;51.952;7.618;2023-05-02T06:57:53;10.23;;;2.60;;
3083;SDS011;1552;51.952;7.618;2023-05-02T07:00:20;10.33;;;3.37;;
3083;SDS011;1552;51.952;7.618;2023-05-02T07:02:46;9.53;;;3.37;;
3083;SDS011;1552;51.952;7.618;2023-05-02T07:05:13;12.43;;;4.70;;
3083;SDS011;1552;51.952;7.618;2023-05-02T07:07:40;14.20;;;3.87;;
3083;SDS011;1552;51.952;7.618;2023-05-02T07:10:09;13.70;;;4.40;;
3083;SDS011;1552;51.952;7.618;2023-05-02T07:12:35;11.60;;;4.07;;
3083;SDS011;1552;51.952;7.618;2023-05-02T07:15:02;11.37;;;3.80;;
3083;SDS011;1552;51.952;7.618;2023-05-02T07:17:28;13.10;;;4.33;;
3083;SDS011;1552;51.952;7.618;2023-05-02T07:19:55;11.43;;;4.13;;
3083;SDS011;1552;51.952;7.618;2023-05-02T07:22:21;12.10;;;4.30;;
3083;SDS011;1552;51.952;7.618;2023-05-02T07:24:48;12.07;;;4.10;;
3083;SDS011;1552;51.952;7.618;2023-05-02T07:27:23;9.93;;;4.97;;
3083;SDS011;1552;51.952;7.618;2023-05-02T07:29:49;17.57;;;5.40;;
3083;SDS011;1552;51.952;7.618;2023-05-02T07:32:16;16.73;;;4.37;;
3083;SDS011;1552;51.952;7.618;2023-05-02T07:34:43;15.50;;;5.80;;
3083;SDS011;1552;51.952;7.618;2023-05-02T07:37:09;14.13;;;4.53;;
3083;SDS011;1552;51.952;7.618;2023-05-02T07:39:36;12.20;;;3.93;;
3083;SDS011;1552;51.952;7.618;2023-05-02T07:42:02;12.17;;;3.57;;
3083;SDS011;1552;51.952;7.618;2023-05-02T07:44:31;8.13;;;4.00;;
3083;SDS011;1552;51.952;7.618;2023-05-02T07:46:57;7.67;;;3.50;;
3083;SDS011;1552;51.952;7.618;2023-05-02T07:49:24;9.83;;;3.57;;
3083;SDS011;1552;51.952;7.618;2023-05-02T07:51:50;11.93;;;3.30;;
3083;SDS011;1552;51.952;7.618;2023-05-02T07:54:16;9.83;;;3.07;;
3083;SDS011;1552;51.952;7.618;2023-05-02T07:56:43;11.20;;;3.77;;
3083;SDS011;1552;51.952;7.618;2023-05-02T07:59:09;6.27;;;3.33;;
3083;SDS011;1552;51.952;7.618;2023-05-02T08:01:37;8.30;;;2.90;;
3083;SDS011;1552;51.952;7.618;2023-05-02T08:04:03;8.27;;;2.90;;
3083;SDS011;1552;51.952;7.618;2023-05-02T08:06:31;11.83;;;3.10;;
3083;SDS011;1552;51.952;7.618;2023-05-02T08:08:58;12.63;;;3.20;;
3083;SDS011;1552;51.952;7.618;2023-05-02T08:11:24;13.80;;;3.60;;
3083;SDS011;1552;51.952;7.618;2023-05-02T08:13:50;10.87;;;3.80;;
3083;SDS011;1552;51.952;7.618;2023-05-02T08:16:17;10.77;;;2.80;;
3083;SDS011;1552;51.952;7.618;2023-05-02T08:18:45;8.90;;;3.37;;
3083;SDS011;1552;51.952;7.618;2023-05-02T08:21:11;10.93;;;3.27;;
3083;SDS011;1552;51.952;7.618;2023-05-02T08:23:40;15.80;;;3.83;;
3083;SDS011;1552;51.952;7.618;2023-05-02T08:26:06;5.93;;;3.13;;
3083;SDS011;1552;51.952;7.618;2023-05-02T08:28:33;7.77;;;3.30;;
3083;SDS011;1552;51.952;7.618;2023-05-02T08:30:59;13.30;;;3.53;;
3083;SDS011;1552;51.952;7.618;2023-05-02T08:33:25;12.60;;;3.47;;
3083;SDS011;1552;51.952;7.618;2023-05-02T08:35:53;11.93;;;3.63;;
3083;SDS011;1552;51.952;7.618;2023-05-02T08:38:19;7.17;;;3.23;;
3083;SDS011;1552;51.952;7.618;2023-05-02T08:40:46;10.37;;;3.27;;
3083;SDS011;1552;51.952;7.618;2023-05-02T08:43:12;10.30;;;3.27;;
3083;SDS011;1552;51.952;7.618;2023-05-02T08:45:42;15.53;;;3.13;;
3083;SDS011;1552;51.952;7.618;2023-05-02T08:48:10;12.90;;;3.53;;
3083;SDS011;1552;51.952;7.618;2023-05-02T08:50:37;11.20;;;2.67;;
3083;SDS011;1552;51.952;7.618;2023-05-02T08:53:05;7.27;;;2.80;;
3083;SDS011;1552;51.952;7.618;2023-05-02T08:55:32;4.90;;;2.50;;
3083;SDS011;1552;51.952;7.618;2023-05-02T08:57:59;8.50;;;3.17;;
3083;SDS011;1552;51.952;7.618;2023-05-02T09:00:26;11.40;;;2.73;;
3083;SDS011;1552;51.952;7.618;2023-05-02T09:02:55;10.97;;;3.30;;
3083;SDS011;1552;51.952;7.618;2023-05-02T09:05:25;10.80;;;3.37;;
3083;SDS011;1552;51.952;7.618;2023-05-02T09:07:51;10.43;;;2.80;;
3083;SDS011;1552;51.952;7.618;2023-05-02T09:10:20;12.50;;;3.00;;
3083;SDS011;1552;51.952;7.618;2023-05-02T09:12:46;5.70;;;3.10;;
3083;SDS011;1552;51.952;7.618;2023-05-02T09:15:13;7.87;;;2.77;;
3083;SDS011;1552;51.952;7.618;2023-05-02T09:17:41;6.93;;;2.67;;
3083;SDS011;1552;51.952;7.618;2023-05-02T09:20:08;5.07;;;2.50;;
3083;SDS011;1552;51.952;7.618;2023-05-02T09:22:35;7.87;;;3.40;;
3083;SDS011;1552;51.952;7.618;2023-05-02T09:25:02;5.33;;;2.30;;
3083;SDS011;1552;51.952;7.618;2023-05-02T09:27:33;6.13;;;2.67;;
3083;SDS011;1552;51.952;7.618;2023-05-02T09:30:20;6.57;;;2.17;;
3083;SDS011;1552;51.952;7.618;2023-05-02T09:32:47;5.07;;;2.37;;
3083;SDS011;1552;51.952;7.618;2023-05-02T09:35:15;9.37;;;2.70;;
3083;SDS011;1552;51.952;7.618;2023-05-02T09:37:47;6.77;;;2.27;;
3083;SDS011;1552;51.952;7.618;2023-05-02T09:40:14;6.27;;;2.33;;
3083;SDS011;1552;51.952;7.618;2023-05-02T09:42:42;6.03;;;2.30;;
3083;SDS011;1552;51.952;7.618;2023-05-02T09:45:17;3.80;;;2.47;;
3083;SDS011;1552;51.952;7.618;2023-05-02T09:47:44;5.50;;;2.07;;
3083;SDS011;1552;51.952;7.618;2023-05-02T09:50:11;3.43;;;2.07;;
3083;SDS011;1552;51.952;7.618;2023-05-02T09:52:39;4.20;;;2.30;;
3083;SDS011;1552;51.952;7.618;2023-05-02T09:55:18;4.27;;;1.87;;
3083;SDS011;1552;51.952;7.618;2023-05-02T09:57:46;3.80;;;1.90;;
3083;SDS011;1552;51.952;7.618;2023-05-02T10:00:16;4.80;;;2.10;;
3083;SDS011;1552;51.952;7.618;2023-05-02T10:02:44;4.90;;;1.93;;
3083;SDS011;1552;51.952;7.618;2023-05-02T10:05:12;9.43;;;1.80;;
3083;SDS011;1552;51.952;7.618;2023-05-02T10:07:38;4.23;;;2.00;;
3083;SDS011;1552;51.952;7.618;2023-05-02T10:10:06;4.93;;;1.80;;
3083;SDS011;1552;51.952;7.618;2023-05-02T10:12:33;5.33;;;1.70;;
3083;SDS011;1552;51.952;7.618;2023-05-02T10:15:02;5.03;;;1.97;;
3083;SDS011;1552;51.952;7.618;2023-05-02T10:17:29;7.60;;;1.80;;
3083;SDS011;1552;51.952;7.618;2023-05-02T10:19:59;3.57;;;1.60;;
3083;SDS011;1552;51.952;7.618;2023-05-02T10:22:27;10.00;;;2.00;;
3083;SDS011;1552;51.952;7.618;2023-05-02T10:24:55;7.13;;;2.63;;
3083;SDS011;1552;51.952;7.618;2023-05-02T10:27:22;5.43;;;2.00;;
3083;SDS011;1552;51.952;7.618;2023-05-02T10:29:49;6.07;;;1.90;;
3083;SDS011;1552;51.952;7.618;2023-05-02T10:32:17;4.70;;;2.50;;
3083;SDS011;1552;51.952;7.618;2023-05-02T10:34:44;6.13;;;1.90;;
3083;SDS011;1552;51.952;7.618;2023-05-02T10:37:11;4.10;;;2.47;;
3083;SDS011;1552;51.952;7.618;2023-05-02T10:39:37;4.47;;;2.07;;
3083;SDS011;1552;51.952;7.618;2023-05-02T10:42:04;5.27;;;2.00;;
3083;SDS011;1552;51.952;7.618;2023-05-02T10:44:31;6.20;;;2.33;;
3083;SDS011;1552;51.952;7.618;2023-05-02T10:46:57;8.37;;;2.93;;
3083;SDS011;1552;51.952;7.618;2023-05-02T10:49:26;11.93;;;3.03;;
3083;SDS011;1552;51.952;7.618;2023-05-02T10:51:53;12.10;;;4.40;;
3083;SDS011;1552;51.952;7.618;2023-05-02T10:54:20;7.97;;;2.80;;
3083;SDS011;1552;51.952;7.618;2023-05-02T10:57:03;7.37;;;2.77;;
3083;SDS011;1552;51.952;7.618;2023-05-02T10:59:30;8.83;;;3.43;;
3083;SDS011;1552;51.952;7.618;2023-05-02T11:01:57;5.97;;;2.80;;
3083;SDS011;1552;51.952;7.618;2023-05-02T11:04:25;9.13;;;3.63;;
3083;SDS011;1552;51.952;7.618;2023-05-02T11:07:17;8.87;;;3.10;;
3083;SDS011;1552;51.952;7.618;2023-05-02T11:09:44;8.53;;;2.53;;
3083;SDS011;1552;51.952;7.618;2023-05-02T11:12:10;6.27;;;2.93;;
3083;SDS011;1552;51.952;7.618;2023-05-02T11:14:57;6.60;;;3.07;;
3083;SDS011;1552;51.952;7.618;2023-05-02T11:17:23;9.00;;;3.33;;
3083;SDS011;1552;51.952;7.618;2023-05-02T11:22:54;11.67;;;3.20;;
3083;SDS011;1552;51.952;7.618;2023-05-02T11:25:30;8.50;;;3.53;;
3083;SDS011;1552;51.952;7.618;2023-05-02T11:27:57;9.03;;;3.40;;
3083;SDS011;1552;51.952;7.618;2023-05-02T11:30:36;6.67;;;3.40;;
3083;SDS011;1552;51.952;7.618;2023-05-02T11:33:10;9.03;;;3.40;;
3083;SDS011;1552;51.952;7.618;2023-05-02T11:35:37;7.10;;;3.03;;
3083;SDS011;1552;51.952;7.618;2023-05-02T11:38:09;11.00;;;3.63;;
3083;SDS011;1552;51.952;7.618;2023-05-02T11:40:35;8.50;;;3.20;;
3083;SDS011;1552;51.952;7.618;2023-05-02T11:43:10;7.83;;;3.43;;
3083;SDS011;1552;51.952;7.618;2023-05-02T11:45:37;8.77;;;3.47;;
3083;SDS011;1552;51.952;7.618;2023-05-02T11:48:04;6.87;;;3.47;;
3083;SDS011;1552;51.952;7.618;2023-05-02T11:50:31;8.03;;;3.37;;
3083;SDS011;1552;51.952;7.618;2023-05-02T11:52:58;8.07;;;3.53;;
3083;SDS011;1552;51.952;7.618;2023-05-02T11:55:26;10.37;;;3.40;;
3083;SDS011;1552;51.952;7.618;2023-05-02T11:57:52;7.57;;;3.70;;
3083;SDS011;1552;51.952;7.618;2023-05-02T12:00:19;8.00;;;3.73;;
3083;SDS011;1552;51.952;7.618;2023-05-02T12:02:51;10.20;;;3.73;;
3083;SDS011;1552;51.952;7.618;2023-05-02T12:05:26;9.50;;;3.63;;
3083;SDS011;1552;51.952;7.618;2023-05-02T12:07:53;7.90;;;3.37;;
3083;SDS011;1552;51.952;7.618;2023-05-02T12:10:19;7.40;;;3.43;;
3083;SDS011;1552;51.952;7.618;2023-05-02T12:12:47;7.17;;;3.53;;
3083;SDS011;1552;51.952;7.618;2023-05-02T12:15:13;13.00;;;4.37;;
3083;SDS011;1552;51.952;7.618;2023-05-02T12:17:40;10.67;;;3.67;;
3083;SDS011;1552;51.952;7.618;2023-05-02T12:20:07;9.17;;;3.83;;
3083;SDS011;1552;51.952;7.618;2023-05-02T12:22:34;10.60;;;4.03;;
3083;SDS011;1552;51.952;7.618;2023-05-02T12:25:01;11.73;;;3.77;;
3083;SDS011;1552;51.952;7.618;2023-05-02T12:27:29;8.60;;;3.80;;
3083;SDS011;1552;51.952;7.618;2023-05-02T12:29:58;11.53;;;4.30;;
3083;SDS011;1552;51.952;7.618;2023-05-02T12:32:28;9.43;;;3.30;;
3083;SDS011;1552;51.952;7.618;2023-05-02T12:34:55;14.67;;;4.00;;
3083;SDS011;1552;51.952;7.618;2023-05-02T12:37:21;7.77;;;4.43;;
3083;SDS011;1552;51.952;7.618;2023-05-02T12:39:48;8.10;;;3.73;;
3083;SDS011;1552;51.952;7.618;2023-05-02T12:42:15;10.50;;;3.70;;
3083;SDS011;1552;51.952;7.618;2023-05-02T12:44:42;8.43;;;3.63;;
3083;SDS011;1552;51.952;7.618;2023-05-02T12:47:10;11.93;;;4.47;;
3083;SDS011;1552;51.952;7.618;2023-05-02T12:49:49;11.33;;;4.13;;
3083;SDS011;1552;51.952;7.618;2023-05-02T12:52:16;9.23;;;4.63;;
3083;SDS011;1552;51.952;7.618;2023-05-02T12:54:42;9.47;;;3.73;;
3083;SDS011;1552;51.952;7.618;2023-05-02T12:57:09;11.23;;;4.33;;
3083;SDS011;1552;51.952;7.618;2023-05-02T12:59:36;9.80;;;4.00;;
3083;SDS011;1552;51.952;7.618;2023-05-02T13:02:04;8.20;;;4.10;;
3083;SDS011;1552;51.952;7.618;2023-05-02T13:04:35;12.60;;;4.90;;
3083;SDS011;1552;51.952;7.618;2023-05-02T13:07:03;17.20;;;4.30;;
3083;SDS011;1552;51.952;7.618;2023-05-02T13:09:29;9.97;;;4.07;;
3083;SDS011;1552;51.952;7.618;2023-05-02T13:11:56;7.63;;;3.40;;
3083;SDS011;1552;51.952;7.618;2023-05-02T13:14:23;11.63;;;4.33;;
3083;SDS011;1552;51.952;7.618;2023-05-02T13:16:49;13.33;;;4.60;;
3083;SDS011;1552;51.952;7.618;2023-05-02T13:19:17;13.70;;;5.70;;
3083;SDS011;1552;51.952;7.618;2023-05-02T13:21:45;7.70;;;4.50;;
3083;SDS011;1552;51.952;7.618;2023-05-02T13:24:11;10.67;;;4.53;;
3083;SDS011;1552;51.952;7.618;2023-05-02T13:26:38;7.73;;;4.07;;
3083;SDS011;1552;51.952;7.618;2023-05-02T13:29:05;12.10;;;4.70;;
3083;SDS011;1552;51.952;7.618;2023-05-02T13:31:33;9.27;;;3.93;;
3083;SDS011;1552;51.952;7.618;2023-05-02T13:34:00;10.33;;;4.53;;
3083;SDS011;1552;51.952;7.618;2023-05-02T13:36:26;9.83;;;4.67;;
3083;SDS011;1552;51.952;7.618;2023-05-02T13:38:54;11.90;;;4.40;;
3083;SDS011;1552;51.952;7.618;2023-05-02T13:41:20;12.97;;;5.03;;
3083;SDS011;1552;51.952;7.618;2023-05-02T13:43:48;9.27;;;4.60;;
3083;SDS011;1552;51.952;7.618;2023-05-02T13:46:15;10.60;;;5.00;;
3083;SDS011;1552;51.952;7.618;2023-05-02T13:48:41;12.37;;;4.97;;
3083;SDS011;1552;51.952;7.618;2023-05-02T13:51:07;12.80;;;4.73;;
3083;SDS011;1552;51.952;7.618;2023-05-02T13:53:34;10.73;;;4.70;;
3083;SDS011;1552;51.952;7.618;2023-05-02T13:56:02;11.30;;;4.10;;
3083;SDS011;1552;51.952;7.618;2023-05-02T13:58:28;12.80;;;4.37;;
3083;SDS011;1552;51.952;7.618;2023-05-02T14:00:54;8.33;;;4.50;;
3083;SDS011;1552;51.952;7.618;2023-05-02T14:03:21;13.87;;;4.73;;
3083;SDS011;1552;51.952;7.618;2023-05-02T14:05:48;9.20;;;4.33;;
3083;SDS011;1552;51.952;7.618;2023-05-02T14:08:14;10.73;;;4.50;;
3083;SDS011;1552;51.952;7.618;2023-05-02T14:10:42;8.20;;;3.90;;
3083;SDS011;1552;51.952;7.618;2023-05-02T14:13:10;10.47;;;4.20;;
3083;SDS011;1552;51.952;7.618;2023-05-02T14:15:36;11.13;;;4.60;;
3083;SDS011;1552;51.952;7.618;2023-05-02T14:18:02;8.23;;;3.67;;
3083;SDS011;1552;51.952;7.618;2023-05-02T14:20:29;8.13;;;4.03;;
3083;SDS011;1552;51.952;7.618;2023-05-02T14:22:55;7.50;;;4.10;;
3083;SDS011;1552;51.952;7.618;2023-05-02T14:25:21;8.63;;;4.07;;
3083;SDS011;1552;51.952;7.618;2023-05-02T14:27:48;8.53;;;4.37;;
3083;SDS011;1552;51.952;7.618;2023-05-02T14:30:16;8.23;;;3.93;;
3083;SDS011;1552;51.952;7.618;2023-05-02T14:32:42;10.43;;;4.13;;
3083;SDS011;1552;51.952;7.618;2023-05-02T14:35:08;6.27;;;3.63;;
3083;SDS011;1552;51.952;7.618;2023-05-02T14:37:35;9.97;;;4.20;;
3083;SDS011;1552;51.952;7.618;2023-05-02T14:40:01;7.63;;;4.30;;
3083;SDS011;1552;51.952;7.618;2023-05-02T14:42:28;7.20;;;4.20;;
3083;SDS011;1552;51.952;7.618;2023-05-02T14:44:54;5.85;;;3.47;;
3083;SDS011;1552;51.952;7.618;2023-05-02T14:47:22;9.52;;;4.15;;
3083;SDS011;1552;51.952;7.618;2023-05-02T14:49:49;8.13;;;4.07;;
3083;SDS011;1552;51.952;7.618;2023-05-02T14:52:16;13.80;;;4.13;;
3083;SDS011;1552;51.952;7.618;2023-05-02T14:54:42;5.97;;;3.85;;
3083;SDS011;1552;51.952;7.618;2023-05-02T14:57:09;8.00;;;3.70;;
3083;SDS011;1552;51.952;7.618;2023-05-02T14:59:35;5.55;;;3.35;;
3083;SDS011;1552;51.952;7.618;2023-05-02T15:02:02;8.30;;;3.45;;
3083;SDS011;1552;51.952;7.618;2023-05-02T15:04:30;9.70;;;4.20;;
3083;SDS011;1552;51.952;7.618;2023-05-02T15:06:56;6.20;;;3.30;;